Time;durP1;ratioP1;P1;durP2;ratioP2;P2;SDS_P1;SDS_P2;PMS_P1;PMS_P2;Temp;Humidity;BMP_temperature;BMP_pressure;BME280_temperature;BME280_humidity;BME280_pressure;Samples;Min_cycle;Max_cycle;Signal;HPM_P1;HPM_P2
2022/01/11 00:01:56;;;;;;;6.60;5.25;;;14.20;46.80;13.20;102662.00;;;;5015929;28;20452;-67
2022/01/11 00:04:42;;;;;;;7.10;5.20;;;14.10;46.70;13.20;102659.00;;;;5014998;28;20037;-67
2022/01/11 00:07:30;;;;;;;6.63;4.95;;;14.20;46.70;13.20;102662.00;;;;5029087;28;20419;-67
2022/01/11 00:10:25;;;;;;;;;;;14.10;46.70;13.20;102666.00;;;;5027394;28;20038;-67
2022/01/11 00:13:12;;;;;;;6.32;4.38;;;14.20;46.90;13.20;102663.00;;;;5017132;28;19913;-67
2022/01/11 00:15:59;;;;;;;6.70;5.22;;;14.20;46.70;13.20;102657.00;;;;5027136;28;20033;-67
2022/01/11 00:18:45;;;;;;;7.80;5.30;;;14.20;46.70;13.20;102663.00;;;;5026878;28;20510;-67
2022/01/11 00:21:39;;;;;;;6.22;4.88;;;14.20;46.70;13.20;102665.00;;;;5027469;28;20508;-67
2022/01/11 00:24:32;;;;;;;6.32;5.13;;;14.20;46.70;13.20;102664.00;;;;5026264;28;20037;-67
2022/01/11 00:27:18;;;;;;;7.13;5.32;;;14.10;46.60;13.20;102668.00;;;;5028444;28;20044;-67
2022/01/11 00:30:08;;;;;;;5.28;4.60;;;14.10;46.70;13.20;102666.00;;;;5028276;28;20149;-67
2022/01/11 00:33:06;;;;;;;7.10;5.47;;;14.10;46.70;13.20;102664.00;;;;5027415;28;20432;-67
2022/01/11 00:36:03;;;;;;;6.45;4.97;;;14.10;46.60;13.20;102662.00;;;;5025874;28;20045;-67
2022/01/11 00:38:49;;;;;;;6.22;5.25;;;14.10;46.60;13.20;102670.00;;;;5029344;28;20041;-67
2022/01/11 00:41:42;;;;;;;7.00;4.65;;;14.10;46.60;13.20;102663.00;;;;5028395;28;20045;-67
2022/01/11 00:44:29;;;;;;;5.32;4.45;;;14.10;46.50;13.20;102666.00;;;;5026641;28;20411;-67
2022/01/11 00:47:15;;;;;;;7.55;5.82;;;14.20;46.60;13.20;102668.00;;;;5014478;28;20052;-67
2022/01/11 00:50:02;;;;;;;6.47;4.85;;;14.10;46.60;13.20;102651.00;;;;5013551;28;20071;-67
2022/01/11 00:52:48;;;;;;;5.97;5.43;;;14.10;46.50;13.20;102659.00;;;;5028268;28;20045;-67
2022/01/11 00:55:35;;;;;;;6.13;5.32;;;14.10;46.50;13.20;102661.00;;;;5029228;28;20045;-67
2022/01/11 00:58:21;;;;;;;7.07;5.05;;;14.10;46.50;13.20;102672.00;;;;5026513;28;20216;-67
2022/01/11 01:01:08;;;;;;;6.05;5.25;;;14.10;46.50;13.20;102677.00;;;;5029642;28;20693;-67
2022/01/11 01:03:54;;;;;;;7.30;5.60;;;14.20;46.50;13.20;102683.00;;;;5014119;28;20048;-67
2022/01/11 01:06:41;;;;;;;7.95;5.00;;;14.10;46.50;13.20;102681.00;;;;5027178;28;20037;-67
2022/01/11 01:09:35;;;;;;;5.75;4.07;;;14.10;46.50;13.20;102690.00;;;;5027140;28;20136;-67
2022/01/11 01:12:22;;;;;;;6.28;4.72;;;14.20;46.60;13.20;102691.00;;;;5026419;28;20037;-67
2022/01/11 01:15:08;;;;;;;5.43;4.93;;;14.10;46.50;13.20;102688.00;;;;5026388;28;20467;-67
2022/01/11 01:17:55;;;;;;;6.55;5.43;;;14.10;46.50;13.20;102680.00;;;;5025630;28;20541;-67
2022/01/11 01:20:42;;;;;;;7.00;5.45;;;14.10;46.50;13.20;102683.00;;;;5013603;28;20130;-67
2022/01/11 01:23:28;;;;;;;7.45;5.32;;;14.10;46.50;13.20;102682.00;;;;5026207;28;20073;-67
2022/01/11 01:26:17;;;;;;;7.93;5.15;;;14.10;46.40;13.20;102687.00;;;;5011141;28;20347;-67
2022/01/11 01:29:03;;;;;;;5.45;4.72;;;14.10;46.40;13.20;102693.00;;;;5026139;28;20040;-67
2022/01/11 01:31:50;;;;;;;7.20;5.70;;;14.10;46.40;13.20;102692.00;;;;5026504;28;20447;-67
2022/01/11 01:34:36;;;;;;;7.32;5.18;;;14.10;46.40;13.20;102700.00;;;;5029666;28;20083;-67
2022/01/11 01:37:22;;;;;;;5.35;4.78;;;14.10;46.40;13.20;102694.00;;;;5013965;28;20045;-67
2022/01/11 01:40:09;;;;;;;6.53;5.07;;;14.10;46.40;13.20;102700.00;;;;5025108;28;20056;-67
2022/01/11 01:42:55;;;;;;;6.78;5.57;;;14.10;46.40;13.20;102701.00;;;;5001752;28;20580;-67
2022/01/11 01:45:43;;;;;;;6.80;5.68;;;14.10;46.40;13.20;102703.00;;;;5028495;28;20543;-67
2022/01/11 01:48:29;;;;;;;7.57;6.00;;;14.10;46.40;13.20;102711.00;;;;5013834;28;20045;-67
2022/01/11 01:51:16;;;;;;;6.97;5.55;;;14.10;46.40;13.20;102717.00;;;;5028179;28;20034;-67
2022/01/11 01:54:02;;;;;;;8.82;6.38;;;14.10;46.40;13.10;102708.00;;;;4997114;28;20038;-67
2022/01/11 01:56:49;;;;;;;7.72;5.63;;;14.10;46.40;13.20;102717.00;;;;5021930;28;20087;-67
2022/01/11 01:59:35;;;;;;;7.22;5.43;;;14.10;46.30;13.20;102724.00;;;;4998102;28;20111;-67
2022/01/11 02:02:21;;;;;;;7.75;5.68;;;14.10;46.30;13.20;102725.00;;;;5013774;28;20300;-67
2022/01/11 02:05:08;;;;;;;8.60;5.93;;;14.10;46.30;13.20;102728.00;;;;5026816;28;20042;-67
2022/01/11 02:07:54;;;;;;;10.52;5.82;;;14.10;46.30;13.20;102728.00;;;;5026652;28;20486;-67
2022/01/11 02:10:41;;;;;;;8.18;5.40;;;14.10;46.30;13.10;102730.00;;;;5025410;28;20376;-67
2022/01/11 02:13:28;;;;;;;7.50;5.82;;;14.10;46.30;13.20;102722.00;;;;5022298;28;20037;-67
2022/01/11 02:16:15;;;;;;;5.95;5.35;;;14.00;46.30;13.10;102730.00;;;;5011311;28;20037;-67
2022/01/11 02:19:01;;;;;;;7.03;5.63;;;14.10;46.40;13.10;102730.00;;;;5012486;28;20045;-67
2022/01/11 02:21:47;;;;;;;9.07;5.50;;;14.10;46.40;13.10;102738.00;;;;5013279;28;20622;-67
2022/01/11 02:24:34;;;;;;;7.35;6.20;;;14.10;46.40;13.10;102738.00;;;;5011099;28;20033;-67
2022/01/11 02:27:20;;;;;;;6.72;5.18;;;14.10;46.40;13.10;102738.00;;;;5024643;28;20064;-67
2022/01/11 02:30:07;;;;;;;6.40;5.38;;;14.10;46.40;13.10;102743.00;;;;5025583;28;20521;-67
2022/01/11 02:32:53;;;;;;;7.80;5.78;;;14.00;46.30;13.10;102743.00;;;;5003485;28;20047;-67
2022/01/11 02:35:39;;;;;;;8.95;5.90;;;14.10;46.40;13.10;102745.00;;;;5025286;28;20037;-67
2022/01/11 02:38:25;;;;;;;6.70;5.30;;;14.10;46.30;13.10;102744.00;;;;5027589;28;20083;-67
2022/01/11 02:41:12;;;;;;;7.15;5.35;;;14.10;46.30;13.10;102739.00;;;;5024956;28;20065;-67
2022/01/11 02:44:00;;;;;;;7.53;5.95;;;14.10;46.30;13.10;102743.00;;;;5012793;28;20463;-67
2022/01/11 02:46:47;;;;;;;6.72;5.45;;;14.10;46.30;13.10;102745.00;;;;5011587;28;20072;-67
2022/01/11 02:49:33;;;;;;;7.97;5.78;;;14.10;46.30;13.10;102743.00;;;;5024293;28;20045;-67
2022/01/11 02:52:19;;;;;;;6.70;5.60;;;14.00;46.20;13.10;102755.00;;;;5013135;28;20466;-67
2022/01/11 02:55:12;;;;;;;7.13;5.63;;;14.00;46.20;13.10;102756.00;;;;5027101;28;20095;-67
2022/01/11 02:57:58;;;;;;;5.65;5.00;;;14.00;46.20;13.10;102750.00;;;;5011538;28;20049;-67
2022/01/11 03:00:44;;;;;;;7.75;5.57;;;14.00;46.20;13.10;102751.00;;;;5025445;28;20068;-67
2022/01/11 03:03:31;;;;;;;7.05;5.60;;;14.10;46.30;13.10;102745.00;;;;5026149;28;20126;-67
2022/01/11 03:06:17;;;;;;;8.55;5.78;;;14.10;46.30;13.10;102750.00;;;;5012730;28;20053;-67
2022/01/11 03:09:03;;;;;;;6.35;5.45;;;14.10;46.30;13.10;102759.00;;;;5011807;28;20463;-67
2022/01/11 03:11:49;;;;;;;9.15;5.93;;;14.00;46.20;13.10;102751.00;;;;4999206;28;20053;-67
2022/01/11 03:14:35;;;;;;;6.97;5.38;;;14.00;46.20;13.10;102761.00;;;;5024997;28;20051;-67
2022/01/11 03:17:22;;;;;;;6.75;5.10;;;14.10;46.30;13.10;102744.00;;;;5028633;28;20037;-67
2022/01/11 03:20:09;;;;;;;6.47;5.00;;;14.00;46.20;13.10;102749.00;;;;5023775;28;20057;-67
2022/01/11 03:22:55;;;;;;;7.32;5.53;;;14.00;46.30;13.10;102756.00;;;;5008615;28;20049;-67
2022/01/11 03:25:42;;;;;;;7.60;5.78;;;14.00;46.20;13.10;102758.00;;;;5027000;28;20049;-67
2022/01/11 03:28:29;;;;;;;7.55;5.47;;;14.00;46.30;13.10;102767.00;;;;5030785;28;20045;-67
2022/01/11 03:31:15;;;;;;;6.75;5.43;;;14.00;46.20;13.10;102760.00;;;;5015206;28;20045;-67
2022/01/11 03:34:02;;;;;;;6.88;5.57;;;14.00;46.20;13.10;102767.00;;;;5015898;28;20167;-67
2022/01/11 03:36:48;;;;;;;7.38;5.45;;;14.10;46.30;13.10;102761.00;;;;5016246;28;20474;-67
2022/01/11 03:39:34;;;;;;;7.35;5.60;;;14.10;46.30;13.10;102774.00;;;;5030888;28;20046;-67
2022/01/11 03:42:20;;;;;;;6.90;5.30;;;14.10;46.20;13.10;102772.00;;;;5029613;28;20045;-67
2022/01/11 03:45:08;;;;;;;6.60;5.43;;;14.00;46.20;13.10;102767.00;;;;5032098;28;20041;-67
2022/01/11 03:47:57;;;;;;;6.90;5.93;;;14.00;46.20;13.10;102768.00;;;;5016382;28;20037;-67
2022/01/11 03:50:49;;;;;;;7.55;5.70;;;14.00;46.10;13.10;102764.00;;;;5014588;28;20107;-67
2022/01/11 03:53:49;;;;;;;7.07;5.50;;;14.00;46.10;13.10;102772.00;;;;5030290;28;20049;-67
2022/01/11 03:56:35;;;;;;;6.35;5.35;;;14.00;46.10;13.10;102776.00;;;;5029756;28;20064;-67
2022/01/11 03:59:23;;;;;;;7.00;5.07;;;14.10;46.20;13.10;102767.00;;;;5002697;28;20042;-67
2022/01/11 04:02:09;;;;;;;6.82;5.00;;;14.00;46.20;13.10;102769.00;;;;5030759;28;20041;-67
2022/01/11 04:04:55;;;;;;;7.47;5.55;;;14.00;46.10;13.10;102771.00;;;;5030078;28;20041;-67
2022/01/11 04:07:41;;;;;;;7.00;5.07;;;14.00;46.10;13.10;102769.00;;;;5027838;28;20981;-67
2022/01/11 04:10:28;;;;;;;6.22;5.30;;;14.00;46.10;13.10;102770.00;;;;5029045;28;20045;-67
2022/01/11 04:13:14;;;;;;;7.75;5.75;;;14.00;46.00;13.10;102766.00;;;;5029829;28;20049;-67
2022/01/11 04:16:00;;;;;;;6.43;5.30;;;14.00;46.00;13.10;102781.00;;;;5028543;28;20045;-67
2022/01/11 04:18:46;;;;;;;7.47;5.97;;;14.00;45.90;13.20;102778.00;;;;5030311;28;20045;-67
2022/01/11 04:21:32;;;;;;;7.80;5.75;;;14.00;45.90;13.20;102775.00;;;;5027903;28;20095;-67
2022/01/11 04:24:18;;;;;;;7.75;5.97;;;14.10;45.90;13.20;102778.00;;;;5014823;28;20083;-67
2022/01/11 04:27:05;;;;;;;6.55;5.18;;;14.10;46.00;13.20;102774.00;;;;5030421;28;20076;-67
2022/01/11 04:29:51;;;;;;;6.97;5.05;;;14.10;45.90;13.20;102777.00;;;;5002331;28;20037;-67
2022/01/11 04:32:38;;;;;;;7.72;5.97;;;14.10;45.80;13.30;102774.00;;;;5012451;28;20099;-67
2022/01/11 04:35:24;;;;;;;6.70;5.50;;;14.10;45.70;13.30;102779.00;;;;5015473;28;20041;-67
2022/01/11 04:38:10;;;;;;;6.35;4.85;;;14.20;45.80;13.30;102784.00;;;;5026444;28;20041;-67
2022/01/11 04:40:56;;;;;;;6.72;5.57;;;14.20;45.70;13.30;102779.00;;;;5022047;28;20045;-67
2022/01/11 04:43:43;;;;;;;7.25;5.85;;;14.20;45.60;13.30;102782.00;;;;5013784;28;20088;-67
2022/01/11 04:46:29;;;;;;;7.57;6.10;;;14.20;45.60;13.30;102782.00;;;;5012763;28;20557;-67
2022/01/11 04:49:15;;;;;;;7.63;5.55;;;14.20;45.50;13.30;102775.00;;;;5014021;28;20044;-67
2022/01/11 04:52:02;;;;;;;6.70;5.07;;;14.20;45.50;13.30;102785.00;;;;5023956;28;20053;-67
2022/01/11 04:54:48;;;;;;;7.80;5.65;;;14.20;45.50;13.30;102781.00;;;;5025747;28;20561;-67
2022/01/11 04:57:34;;;;;;;7.85;5.38;;;14.20;45.50;13.30;102790.00;;;;5025157;28;20049;-67
2022/01/11 05:00:22;;;;;;;7.40;5.68;;;14.20;45.50;13.30;102790.00;;;;5026690;28;20140;-67
2022/01/11 05:03:08;;;;;;;8.20;5.97;;;14.20;45.50;13.30;102792.00;;;;5025243;28;20046;-67
2022/01/11 05:05:54;;;;;;;7.10;5.57;;;14.30;45.50;13.30;102792.00;;;;5028775;28;20038;-67
2022/01/11 05:08:42;;;;;;;7.25;5.53;;;14.30;45.40;13.30;102783.00;;;;5027638;28;20136;-67
2022/01/11 05:11:28;;;;;;;8.43;5.82;;;14.20;45.30;13.30;102785.00;;;;5024648;28;20120;-67
2022/01/11 05:14:15;;;;;;;8.23;5.75;;;14.20;45.40;13.30;102788.00;;;;5026189;28;20456;-67
2022/01/11 05:17:01;;;;;;;7.97;5.82;;;14.20;45.40;13.30;102793.00;;;;5026343;28;20233;-67
2022/01/11 05:19:47;;;;;;;8.77;5.80;;;14.30;45.50;13.30;102788.00;;;;5027633;28;20050;-67
2022/01/11 05:22:33;;;;;;;6.53;5.45;;;14.30;45.50;13.30;102794.00;;;;5027344;28;20045;-67
2022/01/11 05:25:20;;;;;;;6.90;5.75;;;14.30;45.60;13.30;102780.00;;;;5024458;28;20037;-67
2022/01/11 05:28:07;;;;;;;6.67;5.23;;;14.20;45.60;13.30;102788.00;;;;5029680;28;20091;-67
2022/01/11 05:30:53;;;;;;;7.88;5.88;;;14.20;45.50;13.30;102795.00;;;;5020474;28;20041;-67
2022/01/11 05:33:39;;;;;;;6.55;5.85;;;14.20;45.50;13.30;102796.00;;;;5028740;28;20391;-67
2022/01/11 05:36:25;;;;;;;6.30;5.18;;;14.20;45.40;13.30;102797.00;;;;5024838;28;20415;-67
2022/01/11 05:39:11;;;;;;;7.68;6.13;;;14.20;45.50;13.30;102790.00;;;;5027806;28;20128;-67
2022/01/11 05:41:59;;;;;;;7.10;5.45;;;14.20;45.60;13.30;102794.00;;;;5025121;28;20140;-67
2022/01/11 05:44:45;;;;;;;5.78;5.18;;;14.20;45.50;13.30;102791.00;;;;5025811;28;20080;-67
2022/01/11 05:47:32;;;;;;;6.40;5.07;;;14.20;45.60;13.30;102800.00;;;;5025685;28;20037;-67
2022/01/11 05:50:19;;;;;;;7.03;5.35;;;14.20;45.50;13.20;102804.00;;;;5027895;28;20533;-67
2022/01/11 05:53:05;;;;;;;7.18;5.85;;;14.20;45.40;13.20;102800.00;;;;5013443;28;20033;-67
2022/01/11 05:55:52;;;;;;;6.63;5.55;;;14.20;45.50;13.20;102798.00;;;;5013016;28;20091;-67
2022/01/11 05:58:38;;;;;;;8.25;5.72;;;14.20;45.60;13.20;102796.00;;;;5026008;28;20054;-67
2022/01/11 06:01:24;;;;;;;6.65;5.35;;;14.20;45.50;13.20;102799.00;;;;5027272;28;20136;-67
2022/01/11 06:04:10;;;;;;;6.82;5.25;;;14.20;45.40;13.20;102810.00;;;;5026065;28;20470;-67
2022/01/11 06:06:56;;;;;;;6.50;5.28;;;14.10;45.40;13.20;102801.00;;;;5026756;28;20038;-67
2022/01/11 06:09:43;;;;;;;7.45;5.47;;;14.20;45.40;13.20;102798.00;;;;5025938;28;20498;-67
2022/01/11 06:12:29;;;;;;;5.50;4.90;;;14.10;45.40;13.20;102797.00;;;;5027244;28;20196;-67
2022/01/11 06:15:15;;;;;;;6.45;5.18;;;14.10;45.40;13.20;102795.00;;;;5027764;28;20037;-67
2022/01/11 06:18:01;;;;;;;6.45;5.20;;;14.10;45.40;13.20;102808.00;;;;5015034;28;20103;-67
2022/01/11 06:20:47;;;;;;;6.75;5.38;;;14.20;45.40;13.20;102809.00;;;;5011193;28;20410;-67
2022/01/11 06:23:34;;;;;;;6.60;4.97;;;14.20;45.30;13.20;102800.00;;;;5008000;28;20049;-67
2022/01/11 06:26:20;;;;;;;6.07;5.35;;;14.20;45.30;13.20;102805.00;;;;5008403;28;20063;-67
2022/01/11 06:29:06;;;;;;;6.25;4.82;;;14.20;45.30;13.20;102808.00;;;;5027706;28;20468;-67
2022/01/11 06:31:52;;;;;;;7.65;5.05;;;14.10;45.30;13.20;102811.00;;;;5024030;28;20045;-67
2022/01/11 06:34:39;;;;;;;5.57;4.93;;;14.10;45.20;13.20;102811.00;;;;5022629;28;20143;-67
2022/01/11 06:37:25;;;;;;;6.35;5.00;;;14.10;45.30;13.20;102812.00;;;;5011610;28;20037;-67
2022/01/11 06:40:13;;;;;;;6.65;5.00;;;14.10;45.30;13.10;102817.00;;;;5010170;28;20091;-67
2022/01/11 06:43:00;;;;;;;6.50;5.25;;;14.10;45.30;13.10;102828.00;;;;5008911;28;20107;-67
2022/01/11 06:45:46;;;;;;;6.25;4.78;;;14.10;45.30;13.10;102822.00;;;;5024658;28;20051;-67
2022/01/11 06:48:33;;;;;;;6.05;5.07;;;14.10;45.30;13.10;102822.00;;;;5010321;28;20049;-67
2022/01/11 06:51:19;;;;;;;6.20;5.47;;;14.10;45.40;13.10;102818.00;;;;5020730;28;20154;-67
2022/01/11 06:54:06;;;;;;;8.52;5.35;;;14.10;45.30;13.10;102823.00;;;;5023795;28;20370;-67
2022/01/11 06:56:52;;;;;;;7.03;5.80;;;14.10;45.30;13.10;102828.00;;;;5013190;28;20410;-67
2022/01/11 06:59:38;;;;;;;6.53;5.20;;;14.10;45.30;13.10;102822.00;;;;5008068;28;20056;-67
2022/01/11 07:02:24;;;;;;;7.25;4.95;;;14.10;45.30;13.10;102835.00;;;;5020562;28;20033;-67
2022/01/11 07:05:10;;;;;;;6.13;4.82;;;14.00;45.20;13.10;102838.00;;;;5026194;28;20120;-67
2022/01/11 07:07:57;;;;;;;6.43;5.10;;;14.00;45.20;13.10;102837.00;;;;5023911;28;20102;-67
2022/01/11 07:10:43;;;;;;;5.63;4.43;;;14.00;45.30;13.10;102844.00;;;;5010728;28;20119;-67
2022/01/11 07:13:29;;;;;;;5.43;4.80;;;14.10;45.30;13.10;102847.00;;;;5026262;28;20048;-67
2022/01/11 07:16:15;;;;;;;6.57;5.15;;;14.00;45.20;13.10;102850.00;;;;5008300;28;20334;-67
2022/01/11 07:19:01;;;;;;;5.88;5.07;;;14.00;45.20;13.10;102846.00;;;;5011890;28;20052;-67
2022/01/11 07:21:47;;;;;;;5.93;4.97;;;14.00;45.20;13.10;102849.00;;;;5022769;28;20054;-67
2022/01/11 07:24:34;;;;;;;6.80;4.88;;;14.00;45.20;13.10;102857.00;;;;5022379;28;20124;-67
2022/01/11 07:27:20;;;;;;;5.85;5.03;;;14.00;45.20;13.10;102859.00;;;;5022690;28;20128;-67
2022/01/11 07:30:09;;;;;;;6.30;5.35;;;14.00;45.20;13.10;102861.00;;;;4992543;28;20044;-67
2022/01/11 07:32:55;;;;;;;5.13;4.63;;;14.00;45.20;13.10;102859.00;;;;5011601;28;20057;-67
2022/01/11 07:35:41;;;;;;;7.13;5.07;;;14.00;45.20;13.10;102861.00;;;;5022479;28;20037;-67
2022/01/11 07:38:27;;;;;;;6.60;5.07;;;14.00;45.20;13.10;102868.00;;;;5026267;28;20498;-67
2022/01/11 07:41:14;;;;;;;6.32;4.53;;;14.00;45.20;13.10;102875.00;;;;5026041;28;20041;-67
2022/01/11 07:44:00;;;;;;;8.77;5.47;;;14.00;45.20;13.10;102878.00;;;;5026178;28;20034;-67
2022/01/11 07:46:46;;;;;;;6.07;5.05;;;14.00;45.20;13.10;102880.00;;;;5025277;28;20048;-67
2022/01/11 07:49:33;;;;;;;5.97;5.13;;;14.00;45.20;13.10;102884.00;;;;5009444;28;20095;-67
2022/01/11 07:52:19;;;;;;;5.60;5.00;;;14.00;45.10;13.10;102885.00;;;;5023790;28;20049;-67
2022/01/11 07:55:06;;;;;;;6.03;4.82;;;14.00;45.10;13.10;102883.00;;;;5021607;28;20041;-67
2022/01/11 07:57:52;;;;;;;7.30;5.43;;;14.00;45.60;13.10;102890.00;;;;5010676;28;20132;-67
2022/01/11 08:00:39;;;;;;;7.15;5.20;;;14.00;45.10;13.10;102897.00;;;;5025918;28;20502;-67
2022/01/11 08:03:25;;;;;;;5.75;4.50;;;14.00;45.00;13.10;102888.00;;;;5028948;28;20088;-67
2022/01/11 08:06:11;;;;;;;5.63;4.22;;;14.00;45.10;13.10;102901.00;;;;5027160;28;20634;-67
2022/01/11 08:08:57;;;;;;;6.15;4.72;;;14.00;45.00;13.10;102903.00;;;;5006432;28;20116;-67
2022/01/11 08:11:44;;;;;;;6.13;4.60;;;14.00;45.00;13.10;102899.00;;;;5025916;28;20375;-67
2022/01/11 08:14:30;;;;;;;5.57;4.68;;;14.00;45.00;13.10;102901.00;;;;5028454;28;20152;-66
2022/01/11 08:17:17;;;;;;;5.10;4.60;;;14.00;45.00;13.10;102900.00;;;;5025026;28;20041;-67
2022/01/11 08:20:04;;;;;;;6.15;4.80;;;14.00;45.00;13.10;102901.00;;;;5027326;28;20037;-67
2022/01/11 08:22:51;;;;;;;5.63;4.68;;;14.00;45.00;13.10;102907.00;;;;5013168;28;20045;-67
2022/01/11 08:25:37;;;;;;;6.73;4.80;;;14.00;45.00;13.00;102910.00;;;;5026476;28;20033;-67
2022/01/11 08:28:25;;;;;;;5.63;4.65;;;14.00;45.00;13.00;102918.00;;;;5025344;28;20049;-67
2022/01/11 08:31:11;;;;;;;5.20;4.43;;;14.00;44.90;13.10;102916.00;;;;5027879;28;20040;-67
2022/01/11 08:33:57;;;;;;;5.35;4.40;;;14.00;44.90;13.10;102912.00;;;;5014114;28;20070;-67
2022/01/11 08:36:48;;;;;;;5.57;4.97;;;14.00;45.40;13.10;102913.00;;;;5026428;28;20052;-67
2022/01/11 08:39:35;;;;;;;8.20;5.15;;;14.00;44.90;13.10;102912.00;;;;5008404;28;20045;-68
2022/01/11 08:42:21;;;;;;;7.57;4.95;;;14.00;44.90;13.10;102918.00;;;;5012777;28;20045;-67
2022/01/11 08:45:08;;;;;;;6.30;5.05;;;14.00;45.00;13.00;102909.00;;;;5028441;28;20361;-67
2022/01/11 08:47:54;;;;;;;7.05;5.10;;;14.00;45.00;13.10;102918.00;;;;5029217;28;20033;-67
2022/01/11 08:50:40;;;;;;;5.80;4.32;;;14.00;44.90;13.10;102922.00;;;;5028759;28;20037;-67
2022/01/11 08:53:26;;;;;;;6.57;4.85;;;14.00;45.00;13.00;102918.00;;;;5011865;28;20095;-67
2022/01/11 08:56:17;;;;;;;5.78;4.80;;;14.00;45.00;13.00;102921.00;;;;5027145;28;20120;-67
2022/01/11 08:59:03;;;;;;;4.55;4.00;;;14.00;44.90;13.00;102930.00;;;;5015237;28;20077;-67
2022/01/11 09:01:50;;;;;;;7.07;4.88;;;14.00;45.00;13.10;102928.00;;;;5018621;28;20041;-67
2022/01/11 09:04:36;;;;;;;5.35;4.15;;;13.90;44.90;13.00;102928.00;;;;5022892;28;20366;-67
2022/01/11 09:07:22;;;;;;;5.63;4.70;;;14.00;45.00;13.00;102936.00;;;;5025638;28;20385;-67
2022/01/11 09:10:09;;;;;;;7.13;5.10;;;14.00;45.00;13.00;102935.00;;;;5027436;28;20038;-67
2022/01/11 09:12:56;;;;;;;5.47;4.47;;;13.90;44.80;13.00;102933.00;;;;5026913;28;20095;-67
2022/01/11 09:15:42;;;;;;;6.55;4.75;;;14.00;44.90;13.00;102927.00;;;;5014864;28;20383;-67
2022/01/11 09:18:28;;;;;;;7.05;5.10;;;14.00;44.80;13.00;102928.00;;;;5026675;28;20029;-66
2022/01/11 09:21:15;;;;;;;6.05;4.63;;;14.00;44.90;13.10;102937.00;;;;5008419;28;20112;-67
2022/01/11 09:24:02;;;;;;;5.65;4.68;;;14.00;44.80;13.10;102946.00;;;;4999392;28;20092;-67
2022/01/11 09:26:48;;;;;;;5.20;4.53;;;14.00;44.90;13.10;102936.00;;;;5012961;28;20084;-67
2022/01/11 09:29:38;;;;;;;6.07;4.60;;;14.00;44.90;13.10;102948.00;;;;5022775;28;20395;-67
2022/01/11 09:32:25;;;;;;;5.95;4.60;;;14.00;44.90;13.10;102943.00;;;;5021549;28;20128;-67
2022/01/11 09:35:12;;;;;;;7.70;4.35;;;14.00;45.00;13.10;102942.00;;;;5028033;28;20044;-67
2022/01/11 09:37:58;;;;;;;7.68;4.55;;;14.00;45.00;13.10;102941.00;;;;5025393;28;20041;-67
2022/01/11 09:40:45;;;;;;;5.03;4.43;;;14.00;45.00;13.10;102942.00;;;;5026364;28;20053;-67
2022/01/11 09:43:31;;;;;;;4.70;4.20;;;14.00;45.00;13.10;102941.00;;;;5000240;28;20049;-67
2022/01/11 09:46:17;;;;;;;4.93;4.22;;;14.00;45.00;13.10;102936.00;;;;5012059;28;20053;-67
2022/01/11 09:49:04;;;;;;;5.60;4.50;;;14.00;45.00;13.10;102942.00;;;;5013909;28;20056;-67
2022/01/11 09:51:52;;;;;;;6.72;5.05;;;14.00;45.00;13.10;102942.00;;;;5021451;28;20386;-68
2022/01/11 09:54:41;;;;;;;5.80;4.53;;;14.00;44.90;13.10;102936.00;;;;5026424;28;20049;-68
2022/01/11 09:57:28;;;;;;;4.90;4.13;;;14.00;45.00;13.10;102935.00;;;;5023824;28;20099;-68
2022/01/11 10:00:14;;;;;;;6.65;5.03;;;14.00;45.00;13.10;102930.00;;;;5026830;28;20049;-67
2022/01/11 10:03:01;;;;;;;5.95;4.75;;;14.20;45.10;13.10;102942.00;;;;5006737;28;20037;-68
2022/01/11 10:05:47;;;;;;;6.75;4.82;;;14.00;45.00;13.10;102940.00;;;;5009274;28;20103;-68
2022/01/11 10:08:34;;;;;;;6.20;4.57;;;14.00;45.00;13.10;102931.00;;;;5022048;28;20471;-67
2022/01/11 10:11:38;;;;;;;6.78;4.68;;;14.00;45.00;13.10;102934.00;;;;5005151;28;20041;-67
2022/01/11 10:14:32;;;;;;;8.05;4.90;;;14.00;45.00;13.10;102942.00;;;;5020952;28;20292;-68
2022/01/11 10:17:27;;;;;;;6.35;4.65;;;14.00;45.00;13.10;102930.00;;;;5006746;28;20103;-68
2022/01/11 10:20:21;;;;;;;6.68;4.40;;;14.10;45.00;13.10;102940.00;;;;5006362;28;20376;-67
2022/01/11 10:23:08;;;;;;;6.47;4.40;;;14.10;45.10;13.10;102942.00;;;;5025357;28;20069;-68
2022/01/11 10:25:54;;;;;;;6.67;4.83;;;14.10;45.10;13.10;102939.00;;;;5009377;28;20119;-67
2022/01/11 10:28:40;;;;;;;6.50;4.55;;;14.10;45.10;13.10;102940.00;;;;5023822;28;20398;-67
2022/01/11 10:31:33;;;;;;;6.25;4.30;;;14.10;45.10;13.10;102936.00;;;;5019408;28;20117;-68
2022/01/11 10:34:31;;;;;;;6.45;5.00;;;14.10;45.00;13.10;102946.00;;;;5022995;28;20232;-67
2022/01/11 10:37:37;;;;;;;4.93;4.25;;;14.10;45.00;13.10;102937.00;;;;5026193;28;20124;-67
2022/01/11 10:40:52;;;;;;;5.25;4.07;;;14.10;45.10;13.10;102938.00;;;;5000633;28;20040;-67
2022/01/11 10:43:44;;;;;;;8.70;5.10;;;14.10;45.10;13.10;102932.00;;;;4998118;28;20045;-67
2022/01/11 10:46:43;;;;;;;5.82;4.50;;;14.10;45.00;13.10;102946.00;;;;5021049;28;20099;-67
2022/01/11 10:49:31;;;;;;;9.20;4.78;;;14.10;45.00;13.10;102940.00;;;;5009799;28;20111;-67
2022/01/11 10:52:24;;;;;;;5.72;4.20;;;14.10;45.10;13.10;102942.00;;;;5023270;28;20049;-68
2022/01/11 10:55:15;;;;;;;6.32;4.65;;;14.10;45.00;13.10;102949.00;;;;4997415;28;20042;-67
2022/01/11 10:58:08;;;;;;;6.85;4.50;;;14.10;45.10;13.10;102951.00;;;;5011748;28;20049;-67
2022/01/11 11:00:55;;;;;;;8.25;5.20;;;14.10;45.10;13.10;102947.00;;;;4990276;28;20128;-68
2022/01/11 11:03:42;;;;;;;7.18;4.55;;;14.10;45.10;13.10;102946.00;;;;4993778;28;20044;-68
2022/01/11 11:06:29;;;;;;;7.50;5.07;;;14.10;45.10;13.10;102945.00;;;;4981957;28;20052;-68
2022/01/11 11:09:18;;;;;;;9.18;5.00;;;14.10;45.20;13.10;102938.00;;;;4988329;28;20026;-68
2022/01/11 11:12:21;;;;;;;6.55;4.88;;;14.10;45.10;13.10;102932.00;;;;4996018;28;20042;-68
2022/01/11 11:15:07;;;;;;;5.70;4.65;;;14.10;45.10;13.20;102934.00;;;;4986302;28;20150;-67
2022/01/11 11:17:54;;;;;;;8.57;4.95;;;14.10;45.10;13.20;102929.00;;;;4997482;28;20089;-68
2022/01/11 11:20:40;;;;;;;6.80;4.93;;;14.10;45.10;13.20;102933.00;;;;4999702;28;20140;-68
2022/01/11 11:23:26;;;;;;;5.75;4.63;;;14.00;45.00;13.20;102917.00;;;;4999010;28;20042;-68
2022/01/11 11:26:13;;;;;;;6.20;4.45;;;14.10;45.10;13.20;102914.00;;;;4997914;28;20722;-68
2022/01/11 11:28:59;;;;;;;7.57;5.20;;;14.20;45.10;13.20;102916.00;;;;4976930;28;20045;-68
2022/01/11 11:31:47;;;;;;;6.35;4.88;;;14.10;45.10;13.20;102924.00;;;;4987642;28;20301;-68
2022/01/11 11:34:33;;;;;;;8.48;5.07;;;14.10;45.10;13.20;102912.00;;;;4978718;28;20531;-68
2022/01/11 11:37:36;;;;;;;7.80;5.47;;;14.20;45.90;13.20;102918.00;;;;4994887;28;20057;-68
2022/01/11 11:40:24;;;;;;;7.22;5.10;;;14.20;45.20;13.20;102935.00;;;;5001065;28;20516;-68
2022/01/11 11:43:10;;;;;;;;;;;14.20;45.20;13.20;102928.00;;;;4998180;28;20037;-68
2022/01/11 11:45:58;;;;;;;6.10;4.75;;;14.20;45.30;13.20;102928.00;;;;5008729;28;20055;-68
2022/01/11 11:48:54;;;;;;;10.02;4.97;;;14.20;45.10;13.20;102928.00;;;;5001247;28;20160;-68
2022/01/11 11:51:41;;;;;;;6.63;4.70;;;14.20;45.20;13.20;102934.00;;;;4988499;28;20185;-68
2022/01/11 11:54:29;;;;;;;6.80;4.90;;;14.20;45.20;13.20;102935.00;;;;4983411;28;20046;-68
2022/01/11 11:57:16;;;;;;;10.25;5.05;;;14.20;45.10;13.20;102927.00;;;;4995049;28;20042;-68
2022/01/11 12:00:17;;;;;;;6.18;4.63;;;14.20;45.20;13.20;102919.00;;;;5026837;28;20057;-68
2022/01/11 12:03:20;;;;;;;7.25;5.28;;;14.20;45.20;13.20;102905.00;;;;5016568;28;20045;-68
2022/01/11 12:06:06;;;;;;;5.55;4.53;;;14.20;45.20;13.20;102911.00;;;;5028542;28;20042;-68
2022/01/11 12:09:05;;;;;;;7.32;4.82;;;14.20;45.20;13.20;102913.00;;;;5002114;28;20041;-68
2022/01/11 12:11:51;;;;;;;6.75;4.70;;;14.20;45.10;13.20;102905.00;;;;5033492;28;20051;-68
2022/01/11 12:14:37;;;;;;;7.10;4.68;;;14.20;45.20;13.20;102915.00;;;;5015109;28;20046;-68
2022/01/11 12:17:24;;;;;;;5.85;4.30;;;14.20;45.30;13.20;102918.00;;;;5029295;28;20033;-67